sensor_id;sensor_type;location;lat;lon;timestamp;pressure;altitude;pressure_sealevel;temperature;humidity
50310;BME280;36207;51.850;21.698;2023-04-09T00:00:38;100599.55;;;9.02;69.27
50310;BME280;36207;51.850;21.698;2023-04-09T00:03:24;100599.45;;;9.01;69.42
50310;BME280;36207;51.850;21.698;2023-04-09T00:05:50;100598.79;;;9.02;69.33
50310;BME280;36207;51.850;21.698;2023-04-09T00:08:17;100596.34;;;9.04;69.20
50310;BME280;36207;51.850;21.698;2023-04-09T00:10:43;100595.52;;;9.05;69.24
50310;BME280;36207;51.850;21.698;2023-04-09T00:13:09;100597.98;;;9.03;69.44
50310;BME280;36207;51.850;21.698;2023-04-09T00:15:34;100599.65;;;9.01;69.41
50310;BME280;36207;51.850;21.698;2023-04-09T00:18:01;100598.79;;;9.01;69.39
50310;BME280;36207;51.850;21.698;2023-04-09T00:20:26;100598.19;;;9.01;69.30
50310;BME280;36207;51.850;21.698;2023-04-09T00:22:52;100601.63;;;9.02;69.20
50310;BME280;36207;51.850;21.698;2023-04-09T00:25:18;100596.60;;;9.03;69.27
50310;BME280;36207;51.850;21.698;2023-04-09T00:27:44;100593.21;;;9.05;69.42
50310;BME280;36207;51.850;21.698;2023-04-09T00:30:10;100592.64;;;9.05;69.77
50310;BME280;36207;51.850;21.698;2023-04-09T00:32:36;100593.13;;;9.02;70.21
50310;BME280;36207;51.850;21.698;2023-04-09T00:35:03;100593.33;;;8.96;70.17
50310;BME280;36207;51.850;21.698;2023-04-09T00:37:28;100594.23;;;8.93;70.34
50310;BME280;36207;51.850;21.698;2023-04-09T00:39:55;100592.80;;;8.91;70.35
50310;BME280;36207;51.850;21.698;2023-04-09T00:42:21;100591.58;;;8.92;70.11
50310;BME280;36207;51.850;21.698;2023-04-09T00:44:47;100591.86;;;8.93;69.94
50310;BME280;36207;51.850;21.698;2023-04-09T00:47:13;100594.91;;;8.93;70.02
50310;BME280;36207;51.850;21.698;2023-04-09T00:49:39;100589.96;;;8.93;70.02
50310;BME280;36207;51.850;21.698;2023-04-09T00:52:06;100592.41;;;8.93;69.90
50310;BME280;36207;51.850;21.698;2023-04-09T00:54:32;100591.60;;;8.94;70.02
50310;BME280;36207;51.850;21.698;2023-04-09T00:56:58;100589.10;;;8.92;70.08
50310;BME280;36207;51.850;21.698;2023-04-09T00:59:24;100591.88;;;8.89;70.07
50310;BME280;36207;51.850;21.698;2023-04-09T01:01:51;100591.70;;;8.89;70.14
50310;BME280;36207;51.850;21.698;2023-04-09T01:04:17;100592.17;;;8.87;70.15
50310;BME280;36207;51.850;21.698;2023-04-09T01:06:50;100598.09;;;8.84;70.22
50310;BME280;36207;51.850;21.698;2023-04-09T01:11:53;100605.73;;;8.88;70.42
50310;BME280;36207;51.850;21.698;2023-04-09T01:20:29;100614.42;;;8.93;70.71
50310;BME280;36207;51.850;21.698;2023-04-09T01:23:17;100615.52;;;8.91;70.86
50310;BME280;36207;51.850;21.698;2023-04-09T01:26:03;100611.34;;;8.87;70.65
50310;BME280;36207;51.850;21.698;2023-04-09T01:28:45;100608.23;;;8.84;70.53
50310;BME280;36207;51.850;21.698;2023-04-09T01:31:16;100609.29;;;8.86;70.39
50310;BME280;36207;51.850;21.698;2023-04-09T01:33:43;100605.97;;;8.84;70.46
50310;BME280;36207;51.850;21.698;2023-04-09T01:36:10;100606.50;;;8.84;70.58
50310;BME280;36207;51.850;21.698;2023-04-09T01:38:39;100606.95;;;8.83;70.57
50310;BME280;36207;51.850;21.698;2023-04-09T01:41:06;100607.63;;;8.79;70.50
50310;BME280;36207;51.850;21.698;2023-04-09T01:43:33;100610.69;;;8.79;70.47
50310;BME280;36207;51.850;21.698;2023-04-09T01:46:01;100612.09;;;8.79;70.52
50310;BME280;36207;51.850;21.698;2023-04-09T01:48:29;100611.91;;;8.81;70.71
50310;BME280;36207;51.850;21.698;2023-04-09T01:50:59;100607.36;;;8.80;70.69
50310;BME280;36207;51.850;21.698;2023-04-09T01:53:25;100609.16;;;8.78;70.81
50310;BME280;36207;51.850;21.698;2023-04-09T01:55:58;100610.41;;;8.77;70.86
50310;BME280;36207;51.850;21.698;2023-04-09T01:58:24;100605.98;;;8.75;70.97
50310;BME280;36207;51.850;21.698;2023-04-09T02:00:56;100604.88;;;8.75;70.67
50310;BME280;36207;51.850;21.698;2023-04-09T02:03:30;100606.96;;;8.76;70.96
50310;BME280;36207;51.850;21.698;2023-04-09T02:08:59;100605.17;;;8.72;70.97
50310;BME280;36207;51.850;21.698;2023-04-09T02:11:28;100605.09;;;8.71;71.09
50310;BME280;36207;51.850;21.698;2023-04-09T02:13:59;100603.77;;;8.68;71.12
50310;BME280;36207;51.850;21.698;2023-04-09T02:16:26;100602.34;;;8.65;71.10
50310;BME280;36207;51.850;21.698;2023-04-09T02:18:54;100598.20;;;8.64;71.24
50310;BME280;36207;51.850;21.698;2023-04-09T02:21:22;100595.72;;;8.65;71.34
50310;BME280;36207;51.850;21.698;2023-04-09T02:23:49;100595.86;;;8.69;71.28
50310;BME280;36207;51.850;21.698;2023-04-09T02:26:15;100597.40;;;8.70;71.29
50310;BME280;36207;51.850;21.698;2023-04-09T02:28:41;100594.92;;;8.70;71.25
50310;BME280;36207;51.850;21.698;2023-04-09T02:31:07;100589.94;;;8.66;71.10
50310;BME280;36207;51.850;21.698;2023-04-09T02:33:33;100587.64;;;8.63;71.14
50310;BME280;36207;51.850;21.698;2023-04-09T02:35:58;100583.54;;;8.61;71.22
50310;BME280;36207;51.850;21.698;2023-04-09T02:38:24;100581.29;;;8.61;71.36
50310;BME280;36207;51.850;21.698;2023-04-09T02:40:50;100582.17;;;8.61;71.50
50310;BME280;36207;51.850;21.698;2023-04-09T02:43:16;100586.04;;;8.59;71.48
50310;BME280;36207;51.850;21.698;2023-04-09T02:45:42;100594.13;;;8.58;71.74
50310;BME280;36207;51.850;21.698;2023-04-09T02:48:08;100598.06;;;8.56;72.02
50310;BME280;36207;51.850;21.698;2023-04-09T02:50:34;100601.08;;;8.54;72.05
50310;BME280;36207;51.850;21.698;2023-04-09T02:53:00;100603.03;;;8.55;71.88
50310;BME280;36207;51.850;21.698;2023-04-09T02:55:26;100603.14;;;8.55;71.99
50310;BME280;36207;51.850;21.698;2023-04-09T02:57:52;100599.49;;;8.56;72.18
50310;BME280;36207;51.850;21.698;2023-04-09T03:00:18;100598.92;;;8.57;72.20
50310;BME280;36207;51.850;21.698;2023-04-09T03:02:44;100597.41;;;8.55;72.14
50310;BME280;36207;51.850;21.698;2023-04-09T03:05:10;100595.23;;;8.53;72.26
50310;BME280;36207;51.850;21.698;2023-04-09T03:07:36;100596.45;;;8.55;72.06
50310;BME280;36207;51.850;21.698;2023-04-09T03:10:02;100594.25;;;8.57;72.03
50310;BME280;36207;51.850;21.698;2023-04-09T03:12:28;100591.45;;;8.60;72.09
50310;BME280;36207;51.850;21.698;2023-04-09T03:14:54;100586.42;;;8.62;72.22
50310;BME280;36207;51.850;21.698;2023-04-09T03:17:20;100582.45;;;8.63;72.07
50310;BME280;36207;51.850;21.698;2023-04-09T03:19:46;100585.30;;;8.63;71.92
50310;BME280;36207;51.850;21.698;2023-04-09T03:22:12;100586.45;;;8.64;72.02
50310;BME280;36207;51.850;21.698;2023-04-09T03:24:38;100588.40;;;8.66;72.40
50310;BME280;36207;51.850;21.698;2023-04-09T03:27:04;100592.39;;;8.65;72.48
50310;BME280;36207;51.850;21.698;2023-04-09T03:29:35;100588.04;;;8.62;72.33
50310;BME280;36207;51.850;21.698;2023-04-09T03:32:01;100590.60;;;8.60;72.55
50310;BME280;36207;51.850;21.698;2023-04-09T03:34:27;100587.64;;;8.58;72.40
50310;BME280;36207;51.850;21.698;2023-04-09T03:36:53;100591.64;;;8.57;72.39
50310;BME280;36207;51.850;21.698;2023-04-09T03:39:19;100590.08;;;8.56;72.50
50310;BME280;36207;51.850;21.698;2023-04-09T03:41:45;100589.64;;;8.57;72.69
50310;BME280;36207;51.850;21.698;2023-04-09T03:44:11;100587.97;;;8.58;72.31
50310;BME280;36207;51.850;21.698;2023-04-09T03:46:37;100586.48;;;8.59;72.23
50310;BME280;36207;51.850;21.698;2023-04-09T03:49:03;100585.45;;;8.56;72.24
50310;BME280;36207;51.850;21.698;2023-04-09T03:51:29;100584.64;;;8.54;72.43
50310;BME280;36207;51.850;21.698;2023-04-09T03:53:56;100582.92;;;8.52;72.62
50310;BME280;36207;51.850;21.698;2023-04-09T03:56:22;100584.95;;;8.48;72.58
50310;BME280;36207;51.850;21.698;2023-04-09T03:58:48;100583.21;;;8.48;72.54
50310;BME280;36207;51.850;21.698;2023-04-09T04:01:14;100588.91;;;8.52;72.47
50310;BME280;36207;51.850;21.698;2023-04-09T04:03:40;100591.36;;;8.50;72.49
50310;BME280;36207;51.850;21.698;2023-04-09T04:06:06;100592.59;;;8.43;72.35
50310;BME280;36207;51.850;21.698;2023-04-09T04:08:32;100593.64;;;8.38;72.39
50310;BME280;36207;51.850;21.698;2023-04-09T04:11:04;100592.65;;;8.37;72.34
50310;BME280;36207;51.850;21.698;2023-04-09T04:13:30;100588.23;;;8.35;72.55
50310;BME280;36207;51.850;21.698;2023-04-09T04:15:56;100590.51;;;8.30;72.55
50310;BME280;36207;51.850;21.698;2023-04-09T04:18:22;100588.98;;;8.26;72.74
50310;BME280;36207;51.850;21.698;2023-04-09T04:20:48;100588.19;;;8.21;72.37
50310;BME280;36207;51.850;21.698;2023-04-09T04:23:15;100595.33;;;8.17;72.26
50310;BME280;36207;51.850;21.698;2023-04-09T04:25:44;100591.58;;;8.10;72.22
50310;BME280;36207;51.850;21.698;2023-04-09T04:28:10;100596.77;;;8.04;72.25
50310;BME280;36207;51.850;21.698;2023-04-09T04:30:36;100597.90;;;7.97;72.22
50310;BME280;36207;51.850;21.698;2023-04-09T04:33:02;100597.08;;;7.95;72.36
50310;BME280;36207;51.850;21.698;2023-04-09T04:35:28;100600.52;;;7.96;72.52
50310;BME280;36207;51.850;21.698;2023-04-09T04:37:54;100599.93;;;7.97;72.69
50310;BME280;36207;51.850;21.698;2023-04-09T04:40:20;100599.99;;;7.98;72.57
50310;BME280;36207;51.850;21.698;2023-04-09T04:42:46;100595.77;;;7.99;72.64
50310;BME280;36207;51.850;21.698;2023-04-09T04:45:12;100596.67;;;8.01;72.95
50310;BME280;36207;51.850;21.698;2023-04-09T04:47:38;100597.84;;;8.02;73.30
50310;BME280;36207;51.850;21.698;2023-04-09T04:50:05;100598.66;;;8.04;73.34
50310;BME280;36207;51.850;21.698;2023-04-09T04:52:31;100599.84;;;8.11;73.36
50310;BME280;36207;51.850;21.698;2023-04-09T04:54:57;100600.20;;;8.16;73.56
50310;BME280;36207;51.850;21.698;2023-04-09T04:57:23;100604.10;;;8.19;73.78
50310;BME280;36207;51.850;21.698;2023-04-09T04:59:49;100608.80;;;8.22;73.77
50310;BME280;36207;51.850;21.698;2023-04-09T05:02:15;100609.61;;;8.27;73.77
50310;BME280;36207;51.850;21.698;2023-04-09T05:04:40;100607.98;;;8.34;73.88
50310;BME280;36207;51.850;21.698;2023-04-09T05:07:06;100611.58;;;8.43;73.89
50310;BME280;36207;51.850;21.698;2023-04-09T05:09:32;100618.34;;;8.54;73.76
50310;BME280;36207;51.850;21.698;2023-04-09T05:11:58;100614.07;;;8.63;73.73
50310;BME280;36207;51.850;21.698;2023-04-09T05:14:24;100616.92;;;8.72;73.75
50310;BME280;36207;51.850;21.698;2023-04-09T05:16:50;100616.53;;;8.78;73.56
50310;BME280;36207;51.850;21.698;2023-04-09T05:19:16;100618.38;;;8.82;73.57
50310;BME280;36207;51.850;21.698;2023-04-09T05:21:42;100615.98;;;8.85;73.81
50310;BME280;36207;51.850;21.698;2023-04-09T05:24:08;100618.48;;;8.86;73.75
50310;BME280;36207;51.850;21.698;2023-04-09T05:26:34;100621.36;;;8.89;73.66
50310;BME280;36207;51.850;21.698;2023-04-09T05:29:00;100621.41;;;8.91;73.57
50310;BME280;36207;51.850;21.698;2023-04-09T05:31:26;100621.80;;;8.92;73.81
50310;BME280;36207;51.850;21.698;2023-04-09T05:33:52;100625.73;;;8.97;73.98
50310;BME280;36207;51.850;21.698;2023-04-09T05:36:18;100624.71;;;9.02;74.09
50310;BME280;36207;51.850;21.698;2023-04-09T05:38:47;100624.59;;;9.05;74.02
50310;BME280;36207;51.850;21.698;2023-04-09T05:41:14;100625.02;;;9.08;73.92
50310;BME280;36207;51.850;21.698;2023-04-09T05:43:41;100627.84;;;9.12;73.98
50310;BME280;36207;51.850;21.698;2023-04-09T05:46:11;100626.51;;;9.16;73.98
50310;BME280;36207;51.850;21.698;2023-04-09T05:48:37;100630.77;;;9.23;73.94
50310;BME280;36207;51.850;21.698;2023-04-09T05:51:03;100636.70;;;9.28;73.96
50310;BME280;36207;51.850;21.698;2023-04-09T05:53:30;100638.45;;;9.30;74.04
50310;BME280;36207;51.850;21.698;2023-04-09T05:55:56;100643.28;;;9.31;74.03
50310;BME280;36207;51.850;21.698;2023-04-09T05:58:22;100642.96;;;9.34;73.93
50310;BME280;36207;51.850;21.698;2023-04-09T06:00:48;100647.71;;;9.36;74.15
50310;BME280;36207;51.850;21.698;2023-04-09T06:03:16;100645.94;;;9.42;74.22
50310;BME280;36207;51.850;21.698;2023-04-09T06:05:44;100646.40;;;9.46;74.04
50310;BME280;36207;51.850;21.698;2023-04-09T06:08:10;100644.58;;;9.47;73.98
50310;BME280;36207;51.850;21.698;2023-04-09T06:10:37;100645.56;;;9.48;74.17
50310;BME280;36207;51.850;21.698;2023-04-09T06:13:03;100643.52;;;9.50;74.23
50310;BME280;36207;51.850;21.698;2023-04-09T06:15:30;100643.83;;;9.52;74.11
50310;BME280;36207;51.850;21.698;2023-04-09T06:17:57;100645.55;;;9.56;74.16
50310;BME280;36207;51.850;21.698;2023-04-09T06:20:23;100649.92;;;9.62;74.19
50310;BME280;36207;51.850;21.698;2023-04-09T06:22:48;100652.24;;;9.67;74.05
50310;BME280;36207;51.850;21.698;2023-04-09T06:25:14;100651.83;;;9.69;73.97
50310;BME280;36207;51.850;21.698;2023-04-09T06:27:41;100649.27;;;9.73;74.02
50310;BME280;36207;51.850;21.698;2023-04-09T06:30:07;100647.28;;;9.81;74.06
50310;BME280;36207;51.850;21.698;2023-04-09T06:32:33;100648.23;;;9.89;74.22
50310;BME280;36207;51.850;21.698;2023-04-09T06:34:59;100655.48;;;9.99;74.22
50310;BME280;36207;51.850;21.698;2023-04-09T06:37:25;100659.73;;;10.08;74.09
50310;BME280;36207;51.850;21.698;2023-04-09T06:39:51;100657.18;;;10.14;73.96
50310;BME280;36207;51.850;21.698;2023-04-09T06:42:17;100655.91;;;10.22;74.12
50310;BME280;36207;51.850;21.698;2023-04-09T06:44:43;100658.52;;;10.28;74.08
50310;BME280;36207;51.850;21.698;2023-04-09T06:47:09;100656.20;;;10.36;74.08
50310;BME280;36207;51.850;21.698;2023-04-09T06:49:35;100655.58;;;10.48;74.15
50310;BME280;36207;51.850;21.698;2023-04-09T06:52:01;100657.96;;;10.62;74.33
50310;BME280;36207;51.850;21.698;2023-04-09T06:54:28;100660.52;;;10.85;74.74
50310;BME280;36207;51.850;21.698;2023-04-09T06:56:54;100666.30;;;11.04;74.64
50310;BME280;36207;51.850;21.698;2023-04-09T06:59:20;100667.27;;;11.17;74.23
50310;BME280;36207;51.850;21.698;2023-04-09T07:01:46;100664.90;;;11.25;74.08
50310;BME280;36207;51.850;21.698;2023-04-09T07:04:12;100669.63;;;11.29;73.72
50310;BME280;36207;51.850;21.698;2023-04-09T07:06:38;100669.80;;;11.31;73.69
50310;BME280;36207;51.850;21.698;2023-04-09T07:09:05;100672.09;;;11.36;73.79
50310;BME280;36207;51.850;21.698;2023-04-09T07:11:31;100674.30;;;11.42;73.86
50310;BME280;36207;51.850;21.698;2023-04-09T07:13:58;100674.23;;;11.51;74.08
50310;BME280;36207;51.850;21.698;2023-04-09T07:16:25;100670.73;;;11.56;73.79
50310;BME280;36207;51.850;21.698;2023-04-09T07:18:51;100670.23;;;11.64;73.92
50310;BME280;36207;51.850;21.698;2023-04-09T07:21:17;100668.48;;;11.82;74.33
50310;BME280;36207;51.850;21.698;2023-04-09T07:23:43;100670.00;;;12.01;74.18
50310;BME280;36207;51.850;21.698;2023-04-09T07:26:10;100665.23;;;12.14;73.82
50310;BME280;36207;51.850;21.698;2023-04-09T07:28:36;100663.80;;;12.31;74.21
50310;BME280;36207;51.850;21.698;2023-04-09T07:31:06;100660.77;;;12.50;74.08
50310;BME280;36207;51.850;21.698;2023-04-09T07:33:32;100659.34;;;12.66;74.00
50310;BME280;36207;51.850;21.698;2023-04-09T07:35:58;100654.55;;;12.77;73.45
50310;BME280;36207;51.850;21.698;2023-04-09T07:38:27;100652.23;;;12.85;72.93
50310;BME280;36207;51.850;21.698;2023-04-09T07:40:53;100653.58;;;12.98;73.43
50310;BME280;36207;51.850;21.698;2023-04-09T07:43:19;100650.46;;;13.17;73.40
50310;BME280;36207;51.850;21.698;2023-04-09T07:45:49;100648.95;;;13.33;73.27
50310;BME280;36207;51.850;21.698;2023-04-09T07:48:18;100647.17;;;13.51;73.39
50310;BME280;36207;51.850;21.698;2023-04-09T07:50:44;100651.79;;;13.64;72.82
50310;BME280;36207;51.850;21.698;2023-04-09T07:53:10;100651.70;;;13.64;71.99
50310;BME280;36207;51.850;21.698;2023-04-09T07:55:37;100650.46;;;13.61;72.11
50310;BME280;36207;51.850;21.698;2023-04-09T07:58:03;100654.78;;;13.66;72.00
50310;BME280;36207;51.850;21.698;2023-04-09T08:00:30;100655.36;;;13.71;71.97
50310;BME280;36207;51.850;21.698;2023-04-09T08:02:56;100655.63;;;13.84;72.74
50310;BME280;36207;51.850;21.698;2023-04-09T08:05:22;100650.70;;;14.02;72.38
50310;BME280;36207;51.850;21.698;2023-04-09T08:07:50;100655.69;;;14.16;71.33
50310;BME280;36207;51.850;21.698;2023-04-09T08:10:16;100655.15;;;14.29;72.04
50310;BME280;36207;51.850;21.698;2023-04-09T08:12:42;100656.73;;;14.47;71.68
50310;BME280;36207;51.850;21.698;2023-04-09T08:15:08;100662.02;;;14.62;71.36
50310;BME280;36207;51.850;21.698;2023-04-09T08:17:34;100662.98;;;14.72;70.34
50310;BME280;36207;51.850;21.698;2023-04-09T08:20:04;100658.84;;;14.70;69.56
50310;BME280;36207;51.850;21.698;2023-04-09T08:22:31;100652.77;;;14.72;70.55
50310;BME280;36207;51.850;21.698;2023-04-09T08:24:57;100657.37;;;14.81;70.51
50310;BME280;36207;51.850;21.698;2023-04-09T08:27:23;100658.27;;;14.91;70.37
50310;BME280;36207;51.850;21.698;2023-04-09T08:29:50;100657.09;;;15.02;70.60
50310;BME280;36207;51.850;21.698;2023-04-09T08:32:16;100657.20;;;15.11;69.60
50310;BME280;36207;51.850;21.698;2023-04-09T08:34:42;100660.10;;;15.19;69.41
50310;BME280;36207;51.850;21.698;2023-04-09T08:37:08;100662.48;;;15.28;69.50
50310;BME280;36207;51.850;21.698;2023-04-09T08:39:33;100664.15;;;15.38;69.65
50310;BME280;36207;51.850;21.698;2023-04-09T08:42:01;100663.80;;;15.41;67.86
50310;BME280;36207;51.850;21.698;2023-04-09T08:44:29;100666.19;;;15.38;68.38
50310;BME280;36207;51.850;21.698;2023-04-09T08:46:56;100673.31;;;15.41;67.75
50310;BME280;36207;51.850;21.698;2023-04-09T08:49:23;100673.45;;;15.43;68.62
50310;BME280;36207;51.850;21.698;2023-04-09T08:51:49;100673.34;;;15.54;69.15
50310;BME280;36207;51.850;21.698;2023-04-09T08:54:16;100671.91;;;15.65;69.26
50310;BME280;36207;51.850;21.698;2023-04-09T08:56:43;100667.71;;;15.74;69.09
50310;BME280;36207;51.850;21.698;2023-04-09T08:59:09;100662.93;;;15.78;68.00
50310;BME280;36207;51.850;21.698;2023-04-09T09:01:35;100670.53;;;15.73;68.17
50310;BME280;36207;51.850;21.698;2023-04-09T09:04:02;100666.59;;;15.73;68.06
50310;BME280;36207;51.850;21.698;2023-04-09T09:06:31;100667.24;;;15.68;67.53
50310;BME280;36207;51.850;21.698;2023-04-09T09:11:52;100671.48;;;15.68;67.86
50310;BME280;36207;51.850;21.698;2023-04-09T09:14:18;100668.64;;;15.77;67.11
50310;BME280;36207;51.850;21.698;2023-04-09T09:21:58;100666.05;;;15.94;66.79
50310;BME280;36207;51.850;21.698;2023-04-09T09:24:24;100666.55;;;15.94;67.06
50310;BME280;36207;51.850;21.698;2023-04-09T09:26:51;100666.73;;;15.94;67.16
50310;BME280;36207;51.850;21.698;2023-04-09T09:29:17;100667.20;;;15.91;66.67
50310;BME280;36207;51.850;21.698;2023-04-09T09:31:49;100666.32;;;15.89;66.54
50310;BME280;36207;51.850;21.698;2023-04-09T09:34:16;100669.30;;;15.90;66.28
50310;BME280;36207;51.850;21.698;2023-04-09T09:36:43;100672.21;;;15.92;66.55
50310;BME280;36207;51.850;21.698;2023-04-09T09:39:11;100672.48;;;16.00;66.23
50310;BME280;36207;51.850;21.698;2023-04-09T09:41:38;100673.42;;;15.99;65.43
50310;BME280;36207;51.850;21.698;2023-04-09T09:44:06;100670.48;;;16.02;65.83
50310;BME280;36207;51.850;21.698;2023-04-09T09:46:37;100673.22;;;16.08;65.78
50310;BME280;36207;51.850;21.698;2023-04-09T09:49:08;100670.77;;;16.07;65.57
50310;BME280;36207;51.850;21.698;2023-04-09T09:51:38;100672.17;;;16.09;65.91
50310;BME280;36207;51.850;21.698;2023-04-09T09:54:06;100669.90;;;16.07;65.29
50310;BME280;36207;51.850;21.698;2023-04-09T09:56:35;100671.55;;;15.98;65.03
50310;BME280;36207;51.850;21.698;2023-04-09T10:01:31;100665.80;;;15.78;64.57
50310;BME280;36207;51.850;21.698;2023-04-09T10:03:59;100662.16;;;15.70;64.77
50310;BME280;36207;51.850;21.698;2023-04-09T10:06:26;100662.67;;;15.64;64.75
50310;BME280;36207;51.850;21.698;2023-04-09T10:08:56;100662.02;;;15.57;64.59
50310;BME280;36207;51.850;21.698;2023-04-09T10:11:23;100663.58;;;15.49;64.65
50310;BME280;36207;51.850;21.698;2023-04-09T10:13:53;100661.47;;;15.40;64.02
50310;BME280;36207;51.850;21.698;2023-04-09T10:16:25;100661.39;;;15.36;64.49
50310;BME280;36207;51.850;21.698;2023-04-09T10:18:55;100665.02;;;15.34;64.55
50310;BME280;36207;51.850;21.698;2023-04-09T10:21:35;100661.95;;;15.32;64.45
50310;BME280;36207;51.850;21.698;2023-04-09T10:24:04;100660.62;;;15.37;64.54
50310;BME280;36207;51.850;21.698;2023-04-09T10:26:33;100659.16;;;15.42;64.98
50310;BME280;36207;51.850;21.698;2023-04-09T10:29:14;100660.84;;;15.49;64.85
50310;BME280;36207;51.850;21.698;2023-04-09T10:34:15;100654.90;;;15.53;64.00
50310;BME280;36207;51.850;21.698;2023-04-09T10:36:43;100654.36;;;15.52;63.83
50310;BME280;36207;51.850;21.698;2023-04-09T10:39:12;100658.61;;;15.49;63.61
50310;BME280;36207;51.850;21.698;2023-04-09T10:41:39;100652.88;;;15.48;63.60
50310;BME280;36207;51.850;21.698;2023-04-09T10:44:19;100650.15;;;15.48;63.44
50310;BME280;36207;51.850;21.698;2023-04-09T10:46:45;100651.59;;;15.47;62.30
50310;BME280;36207;51.850;21.698;2023-04-09T10:49:18;100652.91;;;15.45;62.79
50310;BME280;36207;51.850;21.698;2023-04-09T10:52:01;100650.29;;;15.50;63.42
50310;BME280;36207;51.850;21.698;2023-04-09T10:59:35;100644.38;;;15.86;63.50
50310;BME280;36207;51.850;21.698;2023-04-09T11:02:02;100643.45;;;16.03;63.96
50310;BME280;36207;51.850;21.698;2023-04-09T11:04:44;100635.61;;;16.22;64.10
50310;BME280;36207;51.850;21.698;2023-04-09T11:07:17;100635.38;;;16.40;63.41
50310;BME280;36207;51.850;21.698;2023-04-09T11:09:46;100638.82;;;16.52;62.77
50310;BME280;36207;51.850;21.698;2023-04-09T11:12:12;100637.21;;;16.59;62.34
50310;BME280;36207;51.850;21.698;2023-04-09T11:14:38;100639.01;;;16.60;62.07
50310;BME280;36207;51.850;21.698;2023-04-09T11:17:04;100637.68;;;16.62;62.66
50310;BME280;36207;51.850;21.698;2023-04-09T11:19:34;100634.26;;;16.66;62.56
50310;BME280;36207;51.850;21.698;2023-04-09T11:22:03;100632.52;;;16.65;62.21
50310;BME280;36207;51.850;21.698;2023-04-09T11:24:44;100631.57;;;16.70;62.91
50310;BME280;36207;51.850;21.698;2023-04-09T11:27:15;100635.08;;;16.75;62.73
50310;BME280;36207;51.850;21.698;2023-04-09T11:29:44;100629.10;;;16.75;62.71
50310;BME280;36207;51.850;21.698;2023-04-09T11:32:11;100625.69;;;16.81;62.95
50310;BME280;36207;51.850;21.698;2023-04-09T11:34:37;100626.90;;;16.89;63.27
50310;BME280;36207;51.850;21.698;2023-04-09T11:37:03;100624.63;;;16.95;63.24
50310;BME280;36207;51.850;21.698;2023-04-09T11:39:36;100626.50;;;17.01;62.92
50310;BME280;36207;51.850;21.698;2023-04-09T11:42:02;100624.02;;;17.06;63.00
50310;BME280;36207;51.850;21.698;2023-04-09T11:44:28;100626.95;;;17.09;62.63
50310;BME280;36207;51.850;21.698;2023-04-09T11:46:57;100629.33;;;17.14;62.38
50310;BME280;36207;51.850;21.698;2023-04-09T11:49:24;100634.42;;;17.16;62.60
50310;BME280;36207;51.850;21.698;2023-04-09T11:51:50;100636.95;;;17.14;61.60
50310;BME280;36207;51.850;21.698;2023-04-09T11:54:16;100633.64;;;17.09;61.83
50310;BME280;36207;51.850;21.698;2023-04-09T11:56:43;100633.05;;;17.01;61.36
50310;BME280;36207;51.850;21.698;2023-04-09T11:59:09;100628.98;;;16.90;61.11
50310;BME280;36207;51.850;21.698;2023-04-09T12:01:38;100629.23;;;16.79;61.04
50310;BME280;36207;51.850;21.698;2023-04-09T12:04:05;100634.02;;;16.70;61.15
50310;BME280;36207;51.850;21.698;2023-04-09T12:06:32;100632.79;;;16.60;60.98
50310;BME280;36207;51.850;21.698;2023-04-09T12:09:07;100629.69;;;16.48;60.79
50310;BME280;36207;51.850;21.698;2023-04-09T12:11:35;100628.90;;;16.36;60.67
50310;BME280;36207;51.850;21.698;2023-04-09T12:14:05;100629.44;;;16.25;60.72
50310;BME280;36207;51.850;21.698;2023-04-09T12:16:32;100624.90;;;16.19;60.98
50310;BME280;36207;51.850;21.698;2023-04-09T12:19:02;100627.16;;;16.15;60.96
50310;BME280;36207;51.850;21.698;2023-04-09T12:24:14;100628.86;;;16.06;60.37
50310;BME280;36207;51.850;21.698;2023-04-09T12:26:40;100627.95;;;16.05;60.68
50310;BME280;36207;51.850;21.698;2023-04-09T12:29:06;100631.00;;;16.03;60.71
50310;BME280;36207;51.850;21.698;2023-04-09T12:31:32;100631.12;;;16.04;60.60
50310;BME280;36207;51.850;21.698;2023-04-09T12:33:58;100632.65;;;16.00;60.28
50310;BME280;36207;51.850;21.698;2023-04-09T12:36:24;100632.06;;;15.98;60.39
50310;BME280;36207;51.850;21.698;2023-04-09T12:38:51;100632.80;;;15.95;60.47
50310;BME280;36207;51.850;21.698;2023-04-09T12:41:18;100631.23;;;15.92;60.02
50310;BME280;36207;51.850;21.698;2023-04-09T12:43:44;100626.52;;;15.86;59.64
50310;BME280;36207;51.850;21.698;2023-04-09T12:46:11;100628.52;;;15.79;60.05
50310;BME280;36207;51.850;21.698;2023-04-09T12:48:38;100627.60;;;15.72;59.49
50310;BME280;36207;51.850;21.698;2023-04-09T12:51:04;100626.73;;;15.64;59.70
50310;BME280;36207;51.850;21.698;2023-04-09T12:53:31;100625.08;;;15.57;59.94
50310;BME280;36207;51.850;21.698;2023-04-09T12:55:58;100622.27;;;15.52;60.06
50310;BME280;36207;51.850;21.698;2023-04-09T12:58:23;100620.02;;;15.45;59.96
50310;BME280;36207;51.850;21.698;2023-04-09T13:00:49;100619.60;;;15.40;59.87
50310;BME280;36207;51.850;21.698;2023-04-09T13:03:16;100616.59;;;15.36;60.24
50310;BME280;36207;51.850;21.698;2023-04-09T13:05:42;100615.95;;;15.32;60.08
50310;BME280;36207;51.850;21.698;2023-04-09T13:08:08;100614.08;;;15.30;60.37
50310;BME280;36207;51.850;21.698;2023-04-09T13:10:34;100612.86;;;15.27;60.35
50310;BME280;36207;51.850;21.698;2023-04-09T13:13:01;100614.67;;;15.26;60.16
50310;BME280;36207;51.850;21.698;2023-04-09T13:15:28;100616.13;;;15.22;59.95
50310;BME280;36207;51.850;21.698;2023-04-09T13:17:54;100615.52;;;15.18;59.94